createdAt,value
2022-11-15T00:01:20.947Z,62.64
2022-11-15T00:03:25.557Z,62.83
2022-11-15T00:05:27.775Z,62.73
2022-11-15T00:07:54.182Z,63.23
2022-11-15T00:09:51.170Z,62.81
2022-11-15T00:11:52.978Z,63.08
2022-11-15T00:13:58.514Z,63.02
2022-11-15T00:16:02.001Z,62.77
2022-11-15T00:18:05.452Z,62.61
2022-11-15T00:20:07.803Z,62.70
2022-11-15T00:22:09.473Z,62.55
2022-11-15T00:24:11.252Z,62.55
2022-11-15T00:26:15.265Z,62.66
2022-11-15T00:28:16.969Z,62.70
2022-11-15T00:30:19.015Z,62.90
2022-11-15T00:32:20.722Z,62.80
2022-11-15T00:34:22.443Z,62.86
2022-11-15T00:36:24.450Z,62.86
2022-11-15T00:38:26.142Z,63.15
2022-11-15T00:40:28.114Z,63.51
2022-11-15T00:42:29.758Z,63.41
2022-11-15T00:44:31.486Z,63.49
2022-11-15T00:46:33.132Z,63.38
2022-11-15T00:48:34.874Z,63.34
2022-11-15T00:50:36.539Z,63.46
2022-11-15T00:52:38.414Z,63.86
2022-11-15T00:54:40.110Z,64.01
2022-11-15T00:56:41.777Z,63.98
2022-11-15T00:58:43.470Z,63.96
2022-11-15T01:00:45.232Z,63.92
2022-11-15T01:02:47.030Z,63.76
2022-11-15T01:04:48.727Z,63.85
2022-11-15T01:06:50.502Z,64.06
2022-11-15T01:08:52.497Z,64.23
2022-11-15T01:10:54.123Z,64.08
2022-11-15T01:12:55.896Z,64.37
2022-11-15T01:14:57.840Z,64.03
2022-11-15T01:16:59.509Z,64.57
2022-11-15T01:19:01.165Z,64.28
2022-11-15T01:21:07.837Z,64.18
2022-11-15T01:23:10.134Z,64.46
2022-11-15T01:25:11.993Z,64.06
2022-11-15T01:27:13.926Z,63.94
2022-11-15T01:29:15.663Z,64.42
2022-11-15T01:31:20.759Z,64.70
2022-11-15T01:33:22.447Z,64.38
2022-11-15T01:35:24.193Z,64.32
2022-11-15T01:37:25.928Z,64.03
2022-11-15T01:39:27.848Z,64.62
2022-11-15T01:41:33.288Z,64.68
2022-11-15T01:43:37.668Z,64.67
2022-11-15T01:45:39.907Z,64.72
2022-11-15T01:47:49.793Z,64.33
2022-11-15T01:50:05.203Z,64.72
2022-11-15T01:52:11.657Z,64.87
2022-11-15T01:54:17.569Z,64.83
2022-11-15T01:56:26.504Z,65.12
2022-11-15T01:58:28.208Z,64.97
2022-11-15T02:00:31.703Z,64.62
2022-11-15T02:02:42.506Z,65.20
2022-11-15T02:04:45.744Z,65.21
2022-11-15T02:06:49.324Z,64.59
2022-11-15T02:08:52.081Z,64.38
2022-11-15T02:10:53.849Z,64.14
2022-11-15T02:13:00.797Z,64.59
2022-11-15T02:15:03.933Z,64.22
2022-11-15T02:17:14.399Z,64.29
2022-11-15T02:19:34.418Z,64.63
2022-11-15T02:22:01.036Z,64.58
2022-11-15T02:24:31.589Z,64.67
2022-11-15T02:27:18.351Z,64.78
2022-11-15T02:29:39.001Z,65.05
2022-11-15T02:31:49.556Z,65.18
2022-11-15T02:34:20.882Z,65.24
2022-11-15T02:36:50.085Z,65.35
2022-11-15T02:39:01.061Z,65.07
2022-11-15T02:41:11.169Z,65.14
2022-11-15T02:43:37.558Z,65.31
2022-11-15T02:45:49.621Z,65.23
2022-11-15T02:47:55.963Z,65.02
2022-11-15T02:50:06.229Z,64.86
2022-11-15T02:52:07.997Z,65.42
2022-11-15T02:54:22.166Z,65.19
2022-11-15T02:56:23.864Z,65.30
2022-11-15T02:58:43.700Z,65.50
2022-11-15T03:01:05.597Z,65.41
2022-11-15T03:03:38.026Z,65.44
2022-11-15T03:05:51.538Z,65.74
2022-11-15T03:08:06.578Z,66.00
2022-11-15T03:10:22.487Z,66.13
2022-11-15T03:13:01.254Z,65.91
2022-11-15T03:15:11.044Z,65.98
2022-11-15T03:17:27.618Z,66.20
2022-11-15T03:19:51.457Z,66.46
2022-11-15T03:21:56.287Z,66.39
2022-11-15T03:24:06.469Z,66.20
2022-11-15T03:26:15.644Z,66.38
2022-11-15T03:28:43.884Z,66.28
2022-11-15T03:30:48.962Z,66.39
2022-11-15T03:32:56.870Z,66.30
2022-11-15T03:35:24.696Z,66.44
2022-11-15T03:37:42.731Z,66.44
2022-11-15T03:39:45.025Z,66.56
2022-11-15T03:41:50.123Z,66.59
2022-11-15T03:44:02.734Z,66.31
2022-11-15T03:46:41.192Z,66.63
2022-11-15T03:48:50.386Z,66.60
2022-11-15T03:50:52.355Z,66.45
2022-11-15T03:52:56.042Z,67.08
2022-11-15T03:54:58.303Z,66.78
2022-11-15T03:57:00.009Z,66.93
2022-11-15T03:59:01.878Z,66.94
2022-11-15T04:01:03.759Z,66.78
2022-11-15T04:03:05.607Z,67.60
2022-11-15T04:05:07.644Z,66.93
2022-11-15T04:07:09.527Z,66.76
2022-11-15T04:09:11.689Z,66.44
2022-11-15T04:11:13.327Z,66.92
2022-11-15T04:13:14.964Z,66.94
2022-11-15T04:15:19.641Z,66.91
2022-11-15T04:17:21.578Z,66.83
2022-11-15T04:19:41.746Z,67.06
2022-11-15T04:22:02.089Z,67.38
2022-11-15T04:24:15.962Z,67.45
2022-11-15T04:26:20.823Z,67.69
2022-11-15T04:28:23.393Z,68.06
2022-11-15T04:30:25.087Z,67.71
2022-11-15T04:32:26.797Z,68.22
2022-11-15T04:34:28.445Z,68.43
2022-11-15T04:36:48.845Z,68.35
2022-11-15T04:38:50.488Z,68.43
2022-11-15T04:40:52.515Z,68.40
2022-11-15T04:42:55.520Z,68.74
2022-11-15T04:45:00.516Z,68.96
2022-11-15T04:47:02.951Z,68.64
2022-11-15T04:49:04.670Z,68.62
2022-11-15T04:51:06.379Z,68.93
2022-11-15T04:53:08.069Z,69.08
2022-11-15T04:55:14.036Z,68.75
2022-11-15T04:57:15.927Z,68.68
2022-11-15T04:59:17.641Z,68.70
2022-11-15T05:01:19.385Z,68.49
2022-11-15T05:03:39.727Z,68.65
2022-11-15T05:05:41.607Z,68.58
2022-11-15T05:07:43.685Z,68.56
2022-11-15T05:09:45.445Z,69.26
2022-11-15T05:11:47.878Z,68.83
2022-11-15T05:13:49.784Z,69.08
2022-11-15T05:15:51.494Z,69.19
2022-11-15T05:17:59.065Z,68.89
2022-11-15T05:20:00.814Z,69.03
2022-11-15T05:22:02.529Z,68.80
2022-11-15T05:24:04.927Z,69.24
2022-11-15T05:26:09.376Z,68.85
2022-11-15T05:28:11.236Z,68.75
2022-11-15T05:30:12.943Z,68.59
2022-11-15T05:32:14.907Z,68.55
2022-11-15T05:34:18.341Z,68.44
2022-11-15T05:36:39.552Z,68.09
2022-11-15T05:38:41.473Z,68.41
2022-11-15T05:40:43.239Z,67.96
2022-11-15T05:42:56.611Z,67.92
2022-11-15T05:44:59.657Z,67.53
2022-11-15T05:47:01.450Z,67.56
2022-11-15T05:49:03.746Z,67.65
2022-11-15T05:51:07.773Z,67.93
2022-11-15T05:53:12.410Z,67.51
2022-11-15T05:55:14.897Z,67.64
2022-11-15T05:57:17.422Z,68.00
2022-11-15T05:59:20.007Z,68.37
2022-11-15T06:01:22.094Z,68.12
2022-11-15T06:03:23.800Z,68.38
2022-11-15T06:05:25.623Z,67.90
2022-11-15T06:07:27.328Z,68.16
2022-11-15T06:09:30.147Z,68.36
2022-11-15T06:11:31.881Z,68.27
2022-11-15T06:13:34.660Z,68.29
2022-11-15T06:15:36.393Z,68.40
2022-11-15T06:17:38.226Z,67.98
2022-11-15T06:19:39.855Z,67.83
2022-11-15T06:21:41.747Z,67.69
2022-11-15T06:23:43.644Z,67.37
2022-11-15T06:25:45.444Z,67.70
2022-11-15T06:27:52.964Z,67.63
2022-11-15T06:29:54.744Z,67.26
2022-11-15T06:31:56.401Z,67.23
2022-11-15T06:33:58.063Z,67.49
2022-11-15T06:36:09.228Z,67.32
2022-11-15T06:38:13.726Z,67.12
2022-11-15T06:40:15.843Z,67.12
2022-11-15T06:42:17.585Z,67.43
2022-11-15T06:44:19.255Z,67.80
2022-11-15T06:46:20.965Z,68.08
2022-11-15T06:48:22.711Z,68.55
2022-11-15T06:50:24.748Z,68.70
2022-11-15T06:52:26.408Z,69.62
2022-11-15T06:54:28.260Z,69.64
2022-11-15T06:56:30.151Z,69.55
2022-11-15T06:58:32.332Z,70.10
2022-11-15T07:00:34.448Z,71.06
2022-11-15T07:02:36.102Z,71.15
2022-11-15T07:04:37.805Z,71.89
2022-11-15T07:06:39.606Z,71.77
2022-11-15T07:08:42.792Z,73.01
2022-11-15T07:10:44.465Z,73.07
2022-11-15T07:12:49.849Z,73.72
2022-11-15T07:14:51.591Z,72.93
2022-11-15T07:16:53.266Z,73.23
2022-11-15T07:18:54.962Z,73.73
2022-11-15T07:20:56.719Z,73.95
2022-11-15T07:23:05.863Z,74.68
2022-11-15T07:25:08.276Z,75.20
2022-11-15T07:27:10.509Z,75.68
2022-11-15T07:29:12.447Z,76.19
2022-11-15T07:31:14.114Z,77.32
2022-11-15T07:33:15.776Z,77.59
2022-11-15T07:35:17.409Z,78.03
2022-11-15T07:37:19.739Z,78.70
2022-11-15T07:39:21.446Z,79.63
2022-11-15T07:41:23.127Z,79.37
2022-11-15T07:43:24.885Z,79.88
2022-11-15T07:45:29.648Z,80.41
2022-11-15T07:47:31.430Z,81.08
2022-11-15T07:49:33.197Z,81.60
2022-11-15T07:51:34.877Z,81.50
2022-11-15T07:53:36.550Z,81.92
2022-11-15T07:55:38.596Z,81.69
2022-11-15T07:57:40.309Z,81.39
2022-11-15T07:59:41.988Z,81.96
2022-11-15T08:01:46.289Z,82.05
2022-11-15T08:03:48.113Z,82.80
2022-11-15T08:05:53.661Z,82.34
2022-11-15T08:07:59.156Z,82.34
2022-11-15T08:10:05.040Z,82.76
2022-11-15T08:12:06.954Z,83.03
2022-11-15T08:14:08.619Z,83.00
2022-11-15T08:16:10.275Z,82.99
2022-11-15T08:18:16.622Z,82.88
2022-11-15T08:20:18.334Z,83.77
2022-11-15T08:22:20.391Z,83.18
2022-11-15T08:24:22.209Z,83.20
2022-11-15T08:26:25.856Z,83.81
2022-11-15T08:28:27.588Z,83.66
2022-11-15T08:30:31.285Z,83.39
2022-11-15T08:32:33.086Z,83.09
2022-11-15T08:34:34.854Z,83.26
2022-11-15T08:36:44.559Z,83.92
2022-11-15T08:38:47.888Z,83.41
2022-11-15T08:40:50.005Z,83.53
2022-11-15T08:42:54.955Z,82.80
2022-11-15T08:44:56.893Z,83.56
2022-11-15T08:46:58.690Z,83.81
2022-11-15T08:49:00.420Z,83.64
2022-11-15T08:51:02.147Z,83.98
2022-11-15T08:53:09.645Z,84.14
2022-11-15T08:55:11.302Z,84.39
2022-11-15T08:57:13.491Z,84.63
2022-11-15T08:59:15.234Z,84.26
2022-11-15T09:01:19.569Z,84.51
2022-11-15T09:03:21.757Z,84.29
2022-11-15T09:05:23.731Z,84.20
2022-11-15T09:07:25.655Z,84.40
2022-11-15T09:09:27.359Z,84.51
2022-11-15T09:11:29.069Z,84.10
2022-11-15T09:13:30.780Z,84.37
2022-11-15T09:15:32.526Z,84.58
2022-11-15T09:17:34.350Z,85.24
2022-11-15T09:19:36.152Z,84.97
2022-11-15T09:21:37.850Z,85.12
2022-11-15T09:23:39.828Z,85.08
2022-11-15T09:25:41.487Z,84.99
2022-11-15T09:27:43.145Z,84.64
2022-11-15T09:29:44.789Z,84.62
2022-11-15T09:31:46.545Z,84.92
2022-11-15T09:33:48.241Z,85.44
2022-11-15T09:35:49.932Z,84.82
2022-11-15T09:37:56.185Z,85.01
2022-11-15T09:39:58.242Z,84.68
2022-11-15T09:42:26.107Z,85.17
2022-11-15T09:44:46.356Z,85.11
2022-11-15T09:47:43.489Z,85.22
2022-11-15T09:49:45.549Z,85.27
2022-11-15T09:51:51.297Z,85.94
2022-11-15T09:54:45.499Z,86.12
2022-11-15T09:56:31.750Z,86.29
2022-11-15T09:59:04.845Z,86.53
2022-11-15T10:01:17.435Z,86.16
2022-11-15T10:03:36.067Z,85.93
2022-11-15T10:05:48.529Z,86.08
2022-11-15T10:08:00.604Z,85.81
2022-11-15T10:10:12.885Z,85.71
2022-11-15T10:12:15.375Z,86.33
2022-11-15T10:14:22.947Z,85.59
2022-11-15T10:17:18.217Z,85.54
2022-11-15T10:19:32.906Z,85.36
2022-11-15T10:22:02.354Z,85.32
2022-11-15T10:24:12.328Z,85.64
2022-11-15T10:26:17.489Z,85.82
2022-11-15T10:28:26.972Z,86.56
2022-11-15T10:30:37.015Z,86.10
2022-11-15T10:32:44.354Z,86.31
2022-11-15T10:34:46.827Z,86.03
2022-11-15T10:36:57.403Z,86.17
2022-11-15T10:38:59.521Z,85.70
2022-11-15T10:41:08.827Z,85.56
2022-11-15T10:43:10.395Z,85.30
2022-11-15T10:45:39.305Z,84.90
2022-11-15T10:47:40.970Z,84.95
2022-11-15T10:50:15.343Z,85.48
2022-11-15T10:52:20.422Z,86.29
2022-11-15T10:54:29.931Z,86.17
2022-11-15T10:56:31.716Z,86.25
2022-11-15T10:58:54.190Z,86.63
2022-11-15T11:00:55.884Z,86.49
2022-11-15T11:02:57.560Z,86.69
2022-11-15T11:05:00.519Z,86.41
2022-11-15T11:07:02.199Z,86.83
2022-11-15T11:09:07.017Z,87.21
2022-11-15T11:11:09.685Z,86.70
2022-11-15T11:13:15.493Z,86.74
2022-11-15T11:15:18.122Z,86.56
2022-11-15T11:17:44.223Z,86.70
2022-11-15T11:20:35.417Z,86.71
2022-11-15T11:23:21.645Z,86.89
2022-11-15T11:25:41.672Z,87.06
2022-11-15T11:28:27.679Z,87.11
2022-11-15T11:30:35.365Z,86.95
2022-11-15T11:32:45.582Z,86.89
2022-11-15T11:35:14.313Z,87.02
2022-11-15T11:37:25.160Z,86.73
2022-11-15T11:39:34.609Z,86.58
2022-11-15T11:42:01.606Z,86.34
2022-11-15T11:44:27.879Z,86.81
2022-11-15T11:46:29.544Z,86.85
2022-11-15T11:48:42.320Z,86.59
2022-11-15T11:50:46.800Z,86.89
2022-11-15T11:53:04.419Z,86.99
2022-11-15T11:55:41.280Z,86.75
2022-11-15T11:57:52.047Z,87.40
2022-11-15T12:00:15.379Z,87.30
2022-11-15T12:02:26.253Z,87.01
2022-11-15T12:04:39.234Z,87.26
2022-11-15T12:06:59.182Z,86.67
2022-11-15T12:09:13.157Z,87.71
2022-11-15T12:11:25.609Z,87.07
2022-11-15T12:13:34.480Z,86.75
2022-11-15T12:16:02.887Z,86.46
2022-11-15T12:18:13.797Z,86.44
2022-11-15T12:20:17.926Z,86.72
2022-11-15T12:22:32.963Z,86.99
2022-11-15T12:24:49.918Z,86.77
2022-11-15T12:27:01.157Z,86.13
2022-11-15T12:29:12.248Z,86.04
2022-11-15T12:31:20.821Z,86.65
2022-11-15T12:33:38.201Z,86.89
2022-11-15T12:35:43.119Z,87.16
2022-11-15T12:37:58.993Z,86.58
2022-11-15T12:40:27.155Z,87.89
2022-11-15T12:42:31.790Z,87.48
2022-11-15T12:44:33.876Z,88.21
2022-11-15T12:46:42.367Z,88.00
2022-11-15T12:48:43.953Z,87.65
2022-11-15T12:51:06.089Z,87.03
2022-11-15T12:53:26.295Z,87.11
2022-11-15T12:55:34.175Z,87.04
2022-11-15T12:57:40.555Z,86.85
2022-11-15T13:00:14.690Z,86.89
2022-11-15T13:02:27.587Z,87.21
2022-11-15T13:04:30.951Z,86.88
2022-11-15T13:06:47.850Z,87.23
2022-11-15T13:08:51.902Z,87.51
2022-11-15T13:10:53.701Z,86.93
2022-11-15T13:13:08.446Z,87.75
2022-11-15T13:15:13.498Z,86.92
2022-11-15T13:17:21.032Z,86.64
2022-11-15T13:19:24.246Z,86.25
2022-11-15T13:21:44.722Z,86.29
2022-11-15T13:23:46.625Z,86.23
2022-11-15T13:26:13.098Z,84.48
2022-11-15T13:28:17.615Z,84.30
2022-11-15T13:30:24.701Z,82.82
2022-11-15T13:32:26.664Z,82.58
2022-11-15T13:34:53.156Z,81.99
2022-11-15T13:36:55.405Z,81.70
2022-11-15T13:39:15.390Z,81.47
2022-11-15T13:41:26.211Z,80.38
2022-11-15T13:43:32.635Z,78.93
2022-11-15T13:45:34.387Z,78.00
2022-11-15T13:47:36.289Z,77.60
2022-11-15T13:49:38.869Z,76.67
2022-11-15T13:51:44.032Z,76.89
2022-11-15T13:53:52.045Z,76.03
2022-11-15T13:55:57.230Z,74.51
2022-11-15T13:58:07.515Z,73.65
2022-11-15T14:00:40.001Z,73.91
2022-11-15T14:02:42.335Z,73.32
2022-11-15T14:04:58.148Z,73.77
2022-11-15T14:07:02.261Z,71.61
2022-11-15T14:09:10.209Z,71.47
2022-11-15T14:11:18.327Z,71.89
2022-11-15T14:13:31.349Z,69.47
2022-11-15T14:15:40.305Z,69.36
2022-11-15T14:17:47.151Z,69.88
2022-11-15T14:19:52.294Z,69.97
2022-11-15T14:22:23.277Z,69.66
2022-11-15T14:24:32.408Z,68.23
2022-11-15T14:26:36.111Z,68.12
2022-11-15T14:28:40.269Z,68.15
2022-11-15T14:30:44.174Z,67.82
2022-11-15T14:32:58.072Z,66.93
2022-11-15T14:35:01.862Z,65.94
2022-11-15T14:37:03.487Z,65.67
2022-11-15T14:39:06.440Z,65.39
2022-11-15T14:41:22.591Z,64.75
2022-11-15T14:43:24.329Z,64.94
2022-11-15T14:45:28.411Z,64.86
2022-11-15T14:47:30.039Z,65.47
2022-11-15T14:49:31.667Z,65.10
2022-11-15T14:51:34.274Z,65.17
2022-11-15T14:53:35.983Z,64.98
2022-11-15T14:55:37.759Z,65.18
2022-11-15T14:57:39.454Z,64.68
2022-11-15T14:59:41.135Z,65.59
2022-11-15T15:01:43.084Z,65.38
2022-11-15T15:03:45.287Z,66.16
2022-11-15T15:05:48.064Z,66.44
2022-11-15T15:07:50.806Z,66.59
2022-11-15T15:10:02.736Z,66.71
2022-11-15T15:12:19.175Z,66.75
2022-11-15T15:14:20.864Z,66.62
2022-11-15T15:16:22.749Z,66.54
2022-11-15T15:18:24.367Z,66.89
2022-11-15T15:20:26.201Z,66.92
2022-11-15T15:22:30.984Z,66.57
2022-11-15T15:24:33.202Z,66.36
2022-11-15T15:26:37.416Z,65.42
2022-11-15T15:28:40.797Z,65.82
2022-11-15T15:30:42.904Z,65.85
2022-11-15T15:32:44.741Z,65.99
2022-11-15T15:34:46.522Z,65.98
2022-11-15T15:36:48.157Z,65.37
2022-11-15T15:38:49.853Z,65.77
2022-11-15T15:40:51.981Z,65.47
2022-11-15T15:42:54.248Z,65.74
2022-11-15T15:44:56.037Z,66.17
2022-11-15T15:46:58.926Z,65.74
2022-11-15T15:49:00.655Z,65.85
2022-11-15T15:51:06.872Z,65.80
2022-11-15T15:53:13.937Z,66.09
2022-11-15T15:55:15.615Z,65.72
2022-11-15T15:57:17.452Z,65.56
2022-11-15T15:59:19.095Z,66.00
2022-11-15T16:01:21.027Z,65.54
2022-11-15T16:03:23.422Z,66.24
2022-11-15T16:05:25.354Z,66.53
2022-11-15T16:07:29.315Z,66.15
2022-11-15T16:09:49.808Z,66.55
2022-11-15T16:11:51.436Z,66.69
2022-11-15T16:13:53.089Z,66.89
2022-11-15T16:15:56.165Z,66.76
2022-11-15T16:18:00.518Z,67.22
2022-11-15T16:20:02.673Z,67.49
2022-11-15T16:22:04.303Z,67.81
2022-11-15T16:24:06.368Z,67.73
2022-11-15T16:26:22.600Z,67.65
2022-11-15T16:28:29.046Z,67.70
2022-11-15T16:30:31.077Z,67.67
2022-11-15T16:32:34.029Z,67.90
2022-11-15T16:34:41.125Z,67.96
2022-11-15T16:36:44.598Z,68.02
2022-11-15T16:38:46.688Z,68.17
2022-11-15T16:40:48.700Z,68.20
2022-11-15T16:42:52.349Z,68.40
2022-11-15T16:44:53.990Z,68.62
2022-11-15T16:46:55.652Z,68.48
2022-11-15T16:48:57.697Z,68.46
2022-11-15T16:51:00.010Z,68.88
2022-11-15T16:53:02.105Z,69.15
2022-11-15T16:55:04.063Z,68.74
2022-11-15T16:57:05.695Z,68.79
2022-11-15T16:59:07.810Z,69.04
2022-11-15T17:01:20.437Z,69.11
2022-11-15T17:03:25.365Z,69.29
2022-11-15T17:05:30.080Z,69.70
2022-11-15T17:07:31.726Z,69.89
2022-11-15T17:09:34.350Z,70.02
2022-11-15T17:14:10.050Z,70.53
2022-11-15T17:16:16.763Z,70.72
2022-11-15T17:18:19.515Z,71.19
2022-11-15T17:20:23.795Z,71.34
2022-11-15T17:22:25.977Z,71.07
2022-11-15T17:24:27.790Z,71.36
2022-11-15T17:26:32.017Z,71.59
2022-11-15T17:28:35.772Z,71.76
2022-11-15T17:30:37.414Z,71.68
2022-11-15T17:32:39.329Z,72.09
2022-11-15T17:34:57.447Z,71.66
2022-11-15T17:36:59.163Z,72.30
2022-11-15T17:39:02.907Z,72.36
2022-11-15T17:41:09.479Z,72.21
2022-11-15T17:43:11.131Z,72.32
2022-11-15T17:45:13.431Z,71.98
2022-11-15T17:47:15.225Z,72.57
2022-11-15T17:49:17.008Z,72.56
2022-11-15T17:51:19.318Z,72.42
2022-11-15T17:53:21.474Z,72.81
2022-11-15T17:55:23.456Z,72.55
2022-11-15T17:57:25.103Z,72.12
2022-11-15T17:59:27.698Z,71.98
2022-11-15T18:01:31.861Z,71.84
2022-11-15T18:03:35.825Z,70.86
2022-11-15T18:05:37.633Z,70.81
2022-11-15T18:07:39.355Z,71.10
2022-11-15T18:09:44.090Z,70.38
2022-11-15T18:11:50.657Z,69.91
2022-11-15T18:13:56.858Z,70.15
2022-11-15T18:16:02.690Z,70.21
2022-11-15T18:18:04.790Z,70.26
2022-11-15T18:20:06.918Z,69.69
2022-11-15T18:22:10.336Z,68.94
2022-11-15T18:24:12.262Z,68.95
2022-11-15T18:26:16.292Z,69.20
2022-11-15T18:28:17.986Z,68.32
2022-11-15T18:30:19.787Z,68.11
2022-11-15T18:32:21.757Z,67.68
2022-11-15T18:34:25.604Z,67.57
2022-11-15T18:36:29.737Z,67.97
2022-11-15T18:38:32.041Z,67.17
2022-11-15T18:40:33.727Z,67.31
2022-11-15T18:42:35.382Z,67.63
2022-11-15T18:44:37.142Z,67.64
2022-11-15T18:46:42.164Z,67.27
2022-11-15T18:48:45.211Z,67.57
2022-11-15T18:50:46.895Z,67.75
2022-11-15T18:52:50.999Z,67.48
2022-11-15T18:54:53.113Z,67.59
2022-11-15T18:56:54.801Z,67.62
2022-11-15T18:58:58.864Z,67.86
2022-11-15T19:01:02.197Z,67.90
2022-11-15T19:03:03.948Z,67.94
2022-11-15T19:05:06.023Z,68.03
2022-11-15T19:07:07.680Z,67.74
2022-11-15T19:09:22.624Z,67.41
2022-11-15T19:11:29.063Z,67.42
2022-11-15T19:13:31.203Z,67.51
2022-11-15T19:15:53.574Z,68.06
2022-11-15T19:17:55.632Z,68.04
2022-11-15T19:19:57.585Z,68.37
2022-11-15T19:21:59.399Z,68.18
2022-11-15T19:24:05.967Z,68.28
2022-11-15T19:26:13.200Z,68.36
2022-11-15T19:28:14.842Z,68.86
2022-11-15T19:30:16.879Z,68.40
2022-11-15T19:32:18.713Z,68.61
2022-11-15T19:34:24.478Z,68.96
2022-11-15T19:36:29.183Z,69.30
2022-11-15T19:38:32.710Z,69.72
2022-11-15T19:40:35.180Z,69.71
2022-11-15T19:42:36.877Z,69.43
2022-11-15T19:44:38.605Z,69.85
2022-11-15T19:46:41.242Z,69.13
2022-11-15T19:48:43.222Z,69.14
2022-11-15T19:50:44.892Z,68.42
2022-11-15T19:52:51.188Z,67.68
2022-11-15T19:54:53.353Z,67.46
2022-11-15T19:56:55.221Z,67.21
2022-11-15T19:58:57.142Z,67.25
2022-11-15T20:01:16.352Z,67.08
2022-11-15T20:03:18.084Z,67.65
2022-11-15T20:05:19.753Z,67.22
2022-11-15T20:07:21.530Z,67.43
2022-11-15T20:09:25.935Z,66.63
2022-11-15T20:11:27.757Z,66.74
2022-11-15T20:13:29.711Z,66.55
2022-11-15T20:15:31.652Z,67.01
2022-11-15T20:17:39.653Z,66.75
2022-11-15T20:19:41.406Z,66.56
2022-11-15T20:21:44.297Z,66.33
2022-11-15T20:23:47.748Z,66.47
2022-11-15T20:25:49.537Z,66.25
2022-11-15T20:27:51.587Z,66.25
2022-11-15T20:29:54.699Z,66.88
2022-11-15T20:31:56.882Z,66.82
2022-11-15T20:33:59.195Z,66.89
2022-11-15T20:36:10.404Z,67.17
2022-11-15T20:38:12.711Z,67.16
2022-11-15T20:40:14.591Z,67.08
2022-11-15T20:42:19.472Z,67.52
2022-11-15T20:44:21.187Z,67.05
2022-11-15T20:46:22.858Z,67.11
2022-11-15T20:48:24.565Z,67.05
2022-11-15T20:50:42.116Z,67.30
2022-11-15T20:52:44.788Z,66.87
2022-11-15T20:54:46.446Z,67.01
2022-11-15T20:56:48.175Z,67.42
2022-11-15T20:58:50.885Z,67.14
2022-11-15T21:04:18.833Z,66.55
2022-11-15T21:06:21.437Z,66.48
2022-11-15T21:08:23.388Z,66.74
2022-11-15T21:10:43.609Z,66.40
2022-11-15T21:12:48.754Z,67.07
2022-11-15T21:14:52.567Z,67.47
2022-11-15T21:16:54.387Z,67.55
2022-11-15T21:18:56.317Z,67.29
2022-11-15T21:21:07.532Z,66.84
2022-11-15T21:23:09.250Z,67.21
2022-11-15T21:25:11.112Z,67.71
2022-11-15T21:27:13.089Z,67.08
2022-11-15T21:29:17.452Z,67.31
2022-11-15T21:31:19.249Z,67.38
2022-11-15T21:33:21.607Z,67.48
2022-11-15T21:35:23.910Z,67.47
2022-11-15T21:37:25.795Z,67.52
2022-11-15T21:39:27.560Z,67.01
2022-11-15T21:41:29.229Z,67.30
2022-11-15T21:43:30.883Z,67.12
2022-11-15T21:45:32.588Z,66.94
2022-11-15T21:47:34.208Z,67.10
2022-11-15T21:49:35.928Z,67.26
2022-11-15T21:51:38.016Z,66.60
2022-11-15T21:53:39.703Z,66.80
2022-11-15T21:55:41.406Z,66.90
2022-11-15T21:57:43.160Z,66.76
2022-11-15T22:00:03.410Z,67.69
2022-11-15T22:02:17.308Z,67.77
2022-11-15T22:04:19.158Z,67.93
2022-11-15T22:06:20.807Z,68.43
2022-11-15T22:08:23.115Z,68.38
2022-11-15T22:10:24.925Z,68.33
2022-11-15T22:12:29.660Z,68.30
2022-11-15T22:14:31.614Z,68.65
2022-11-15T22:16:33.382Z,68.51
2022-11-15T22:18:35.547Z,68.68
2022-11-15T22:20:44.459Z,68.84
2022-11-15T22:22:48.664Z,68.92
2022-11-15T22:24:50.376Z,68.69
2022-11-15T22:26:52.067Z,68.63
2022-11-15T22:28:53.757Z,68.97
2022-11-15T22:30:56.259Z,68.57
2022-11-15T22:32:57.891Z,69.11
2022-11-15T22:34:59.526Z,68.61
2022-11-15T22:39:22.840Z,68.99
2022-11-15T22:41:24.533Z,69.04
2022-11-15T22:43:27.323Z,68.46
2022-11-15T22:45:28.966Z,68.17
2022-11-15T22:47:30.729Z,68.24
2022-11-15T22:49:32.365Z,68.25
2022-11-15T22:51:34.000Z,68.72
2022-11-15T22:53:35.736Z,68.69
2022-11-15T22:55:43.952Z,68.62
2022-11-15T22:57:45.633Z,68.27
2022-11-15T22:59:47.425Z,68.60
2022-11-15T23:01:51.811Z,68.18
2022-11-15T23:03:53.471Z,68.20
2022-11-15T23:05:55.375Z,68.24
2022-11-15T23:07:57.033Z,68.08
2022-11-15T23:10:18.666Z,68.31
2022-11-15T23:12:46.755Z,67.88
2022-11-15T23:14:48.520Z,67.33
2022-11-15T23:16:50.419Z,67.85
2022-11-15T23:18:58.351Z,68.09
2022-11-15T23:21:00.222Z,68.04
2022-11-15T23:23:01.988Z,67.67
2022-11-15T23:25:04.325Z,68.01
2022-11-15T23:27:07.575Z,68.13
2022-11-15T23:29:11.344Z,67.88
2022-11-15T23:31:31.850Z,68.71
2022-11-15T23:33:52.036Z,68.35
2022-11-15T23:35:55.460Z,68.52
2022-11-15T23:37:57.143Z,68.96
2022-11-15T23:39:58.810Z,68.57
2022-11-15T23:42:05.938Z,68.38
2022-11-15T23:44:10.929Z,68.15
2022-11-15T23:46:12.586Z,68.66
2022-11-15T23:48:14.465Z,68.27
2022-11-15T23:50:16.512Z,67.61
2022-11-15T23:52:18.287Z,68.24
2022-11-15T23:54:19.946Z,68.05
2022-11-15T23:56:22.765Z,67.27
2022-11-15T23:58:24.582Z,67.14
